createdAt,value
2018-12-06T00:01:40.970Z,2.40
2018-12-06T00:04:09.939Z,2.30
2018-12-06T00:06:38.662Z,2.30
2018-12-06T00:09:07.650Z,2.40
2018-12-06T00:11:36.449Z,2.30
2018-12-06T00:14:05.112Z,2.30
2018-12-06T00:16:33.799Z,2.30
2018-12-06T00:19:08.102Z,2.30
2018-12-06T00:21:37.006Z,2.40
2018-12-06T00:24:05.740Z,2.40
2018-12-06T00:26:34.493Z,2.40
2018-12-06T00:29:03.219Z,2.40
2018-12-06T00:31:31.934Z,2.50
2018-12-06T00:34:00.702Z,2.40
2018-12-06T00:36:29.424Z,2.40
2018-12-06T00:38:58.172Z,2.40
2018-12-06T00:41:26.851Z,2.40
2018-12-06T00:43:55.569Z,2.40
2018-12-06T00:46:24.329Z,2.40
2018-12-06T00:48:53.011Z,2.40
2018-12-06T00:51:21.734Z,2.40
2018-12-06T00:53:50.435Z,2.40
2018-12-06T00:56:19.117Z,2.40
2018-12-06T00:58:47.828Z,2.40
2018-12-06T01:01:16.539Z,2.40
2018-12-06T01:03:45.284Z,2.50
2018-12-06T01:06:13.974Z,2.50
2018-12-06T01:08:42.671Z,2.60
2018-12-06T01:11:11.383Z,2.60
2018-12-06T01:13:40.090Z,2.60
2018-12-06T01:16:08.866Z,2.50
2018-12-06T01:18:37.550Z,2.50
2018-12-06T01:21:06.265Z,2.50
2018-12-06T01:23:34.938Z,2.50
2018-12-06T01:26:03.609Z,2.50
2018-12-06T01:28:32.328Z,2.60
2018-12-06T01:31:01.015Z,2.60
2018-12-06T01:33:29.695Z,2.60
2018-12-06T01:35:58.385Z,2.50
2018-12-06T01:38:27.133Z,2.60
2018-12-06T01:40:55.825Z,2.60
2018-12-06T01:43:24.543Z,2.60
2018-12-06T01:45:53.208Z,2.60
2018-12-06T01:48:22.142Z,2.50
2018-12-06T01:50:50.848Z,2.50
2018-12-06T01:53:19.512Z,2.60
2018-12-06T01:55:48.209Z,2.50
2018-12-06T01:58:16.871Z,2.60
2018-12-06T02:00:45.538Z,2.60
2018-12-06T02:03:14.210Z,2.60
2018-12-06T02:05:42.954Z,2.50
2018-12-06T02:08:11.620Z,2.60
2018-12-06T02:10:40.431Z,2.60
2018-12-06T02:13:09.361Z,2.60
2018-12-06T02:15:38.035Z,2.60
2018-12-06T02:18:06.726Z,2.60
2018-12-06T02:20:35.507Z,2.60
2018-12-06T02:23:04.202Z,2.60
2018-12-06T02:25:32.898Z,2.60
2018-12-06T02:28:01.594Z,2.60
2018-12-06T02:30:30.309Z,2.60
2018-12-06T02:32:59.240Z,2.60
2018-12-06T02:35:27.929Z,2.70
2018-12-06T02:37:56.694Z,2.60
2018-12-06T02:40:25.402Z,2.60
2018-12-06T02:42:54.143Z,2.70
2018-12-06T02:45:22.857Z,2.60
2018-12-06T02:47:52.639Z,2.70
2018-12-06T02:50:21.433Z,2.70
2018-12-06T02:52:51.096Z,2.60
2018-12-06T02:55:20.458Z,2.60
2018-12-06T02:57:49.224Z,2.70
2018-12-06T03:00:17.923Z,2.80
2018-12-06T03:02:46.649Z,2.70
2018-12-06T03:05:15.324Z,2.70
2018-12-06T03:07:44.056Z,2.70
2018-12-06T03:10:12.720Z,2.70
2018-12-06T03:12:41.441Z,2.70
2018-12-06T03:15:10.260Z,2.70
2018-12-06T03:17:38.976Z,2.70
2018-12-06T03:20:08.364Z,2.80
2018-12-06T03:22:37.081Z,2.80
2018-12-06T03:25:06.319Z,2.80
2018-12-06T03:27:35.011Z,2.80
2018-12-06T03:30:04.337Z,2.70
2018-12-06T03:32:33.265Z,2.80
2018-12-06T03:35:01.958Z,2.80
2018-12-06T03:37:30.653Z,2.80
2018-12-06T03:39:59.385Z,2.80
2018-12-06T03:42:28.085Z,2.80
2018-12-06T03:44:56.786Z,2.80
2018-12-06T03:47:25.447Z,2.80
2018-12-06T03:49:54.152Z,2.90
2018-12-06T03:52:22.845Z,2.90
2018-12-06T03:54:51.541Z,2.90
2018-12-06T03:57:20.227Z,2.90
2018-12-06T03:59:51.045Z,3.00
2018-12-06T04:02:19.715Z,3.00
2018-12-06T04:04:48.390Z,3.10
2018-12-06T04:07:17.071Z,3.10
2018-12-06T04:09:45.781Z,3.10
2018-12-06T04:12:14.560Z,3.20
2018-12-06T04:14:43.220Z,3.20
2018-12-06T04:17:11.929Z,3.20
2018-12-06T04:19:40.824Z,3.20
2018-12-06T04:22:09.515Z,3.20
2018-12-06T04:24:38.307Z,3.30
2018-12-06T04:27:07.742Z,3.30
2018-12-06T04:29:36.412Z,3.40
2018-12-06T04:32:05.095Z,3.40
2018-12-06T04:34:33.791Z,3.40
2018-12-06T04:37:02.962Z,3.40
2018-12-06T04:39:31.675Z,3.50
2018-12-06T04:42:00.400Z,3.40
2018-12-06T04:44:29.101Z,3.50
2018-12-06T04:46:57.833Z,3.50
2018-12-06T04:49:27.055Z,3.50
2018-12-06T04:51:55.756Z,3.50
2018-12-06T04:54:24.500Z,3.50
2018-12-06T04:56:53.195Z,3.60
2018-12-06T04:59:21.910Z,3.60
2018-12-06T05:01:50.615Z,3.60
2018-12-06T05:04:19.339Z,3.60
2018-12-06T05:06:48.199Z,3.60
2018-12-06T05:09:16.905Z,3.70
2018-12-06T05:11:45.687Z,3.70
2018-12-06T05:14:14.578Z,3.70
2018-12-06T05:16:44.492Z,3.70
2018-12-06T05:19:13.669Z,3.70
2018-12-06T05:21:42.806Z,3.70
2018-12-06T05:24:11.658Z,3.80
2018-12-06T05:26:41.330Z,3.80
2018-12-06T05:29:10.262Z,3.90
2018-12-06T05:31:38.981Z,3.80
2018-12-06T05:34:07.719Z,3.90
2018-12-06T05:36:36.580Z,3.90
2018-12-06T05:39:06.806Z,3.90
2018-12-06T05:41:35.479Z,3.90
2018-12-06T05:44:04.238Z,3.90
2018-12-06T05:46:32.961Z,3.90
2018-12-06T05:49:01.688Z,3.90
2018-12-06T05:51:30.467Z,4.00
2018-12-06T05:53:59.216Z,4.00
2018-12-06T05:56:28.223Z,4.00
2018-12-06T05:58:56.964Z,4.00
2018-12-06T06:01:25.660Z,4.10
2018-12-06T06:03:54.362Z,4.10
2018-12-06T06:06:23.079Z,4.10
2018-12-06T06:08:51.643Z,4.00
2018-12-06T06:11:20.419Z,4.10
2018-12-06T06:13:49.226Z,4.10
2018-12-06T06:16:17.944Z,4.20
2018-12-06T06:18:46.610Z,4.10
2018-12-06T06:21:15.386Z,4.10
2018-12-06T06:23:44.106Z,4.10
2018-12-06T06:26:12.915Z,4.10
2018-12-06T06:28:41.645Z,4.10
2018-12-06T06:31:10.399Z,4.20
2018-12-06T06:33:39.115Z,4.20
2018-12-06T06:36:07.810Z,4.20
2018-12-06T06:38:36.484Z,4.20
2018-12-06T06:41:05.203Z,4.20
2018-12-06T06:43:33.883Z,4.30
2018-12-06T06:46:02.625Z,4.30
2018-12-06T06:48:31.587Z,4.20
2018-12-06T06:51:00.290Z,4.20
2018-12-06T06:53:29.010Z,4.20
2018-12-06T06:55:57.796Z,4.20
2018-12-06T06:58:26.472Z,4.20
2018-12-06T07:00:55.213Z,4.20
2018-12-06T07:03:24.087Z,4.20
2018-12-06T07:05:52.773Z,4.20
2018-12-06T07:08:21.499Z,4.20
2018-12-06T07:10:50.216Z,4.20
2018-12-06T07:13:18.940Z,4.20
2018-12-06T07:15:47.650Z,4.20
2018-12-06T07:18:16.389Z,4.10
2018-12-06T07:20:46.501Z,4.20
2018-12-06T07:23:15.379Z,4.20
2018-12-06T07:25:46.457Z,4.10
2018-12-06T07:28:14.793Z,4.10
2018-12-06T07:30:43.478Z,4.10
2018-12-06T07:33:14.707Z,4.10
2018-12-06T07:35:43.909Z,4.10
2018-12-06T07:38:12.605Z,4.10
2018-12-06T07:40:41.269Z,4.00
2018-12-06T07:43:09.927Z,4.10
2018-12-06T07:45:38.617Z,4.10
2018-12-06T07:48:07.318Z,4.10
2018-12-06T07:50:35.993Z,4.10
2018-12-06T07:53:04.722Z,4.10
2018-12-06T07:55:34.190Z,4.10
2018-12-06T07:58:03.082Z,4.10
2018-12-06T08:00:32.024Z,4.20
2018-12-06T08:03:00.729Z,4.10
2018-12-06T08:05:29.422Z,4.10
2018-12-06T08:07:58.167Z,4.10
2018-12-06T08:10:27.712Z,4.00
2018-12-06T08:12:56.823Z,4.00
2018-12-06T08:15:25.483Z,4.00
2018-12-06T08:17:54.204Z,4.10
2018-12-06T08:20:22.905Z,4.20
2018-12-06T08:22:51.601Z,4.20
2018-12-06T08:25:20.306Z,4.30
2018-12-06T08:27:48.986Z,4.30
2018-12-06T08:30:17.653Z,4.30
2018-12-06T08:32:46.311Z,4.30
2018-12-06T08:35:14.993Z,4.30
2018-12-06T08:37:45.941Z,4.30
2018-12-06T08:40:14.708Z,4.30
2018-12-06T08:42:45.848Z,4.30
2018-12-06T08:45:16.013Z,4.30
2018-12-06T08:47:44.697Z,4.30
2018-12-06T08:50:15.973Z,4.30
2018-12-06T08:52:44.643Z,4.40
2018-12-06T08:55:13.290Z,4.40
2018-12-06T08:57:43.417Z,4.50
2018-12-06T09:00:12.104Z,4.60
2018-12-06T09:02:40.869Z,4.60
2018-12-06T09:05:09.561Z,4.70
2018-12-06T09:07:38.234Z,4.80
2018-12-06T09:10:07.425Z,4.80
2018-12-06T09:12:36.138Z,4.80
2018-12-06T09:15:05.313Z,4.90
2018-12-06T09:17:34.039Z,5.00
2018-12-06T09:20:02.697Z,5.10
2018-12-06T09:22:31.397Z,5.00
2018-12-06T09:25:02.544Z,5.10
2018-12-06T09:27:31.257Z,5.10
2018-12-06T09:29:59.977Z,5.20
2018-12-06T09:32:28.624Z,5.20
2018-12-06T09:34:57.318Z,5.20
2018-12-06T09:37:26.043Z,5.20
2018-12-06T09:39:57.783Z,5.20
2018-12-06T09:42:26.516Z,5.30
2018-12-06T09:44:55.281Z,5.30
2018-12-06T09:47:23.962Z,5.30
2018-12-06T09:49:52.655Z,5.30
2018-12-06T09:52:21.312Z,5.40
2018-12-06T09:54:50.037Z,5.40
2018-12-06T09:57:19.110Z,5.30
2018-12-06T09:59:47.801Z,5.40
2018-12-06T10:02:16.510Z,5.50
2018-12-06T10:04:45.248Z,5.50
2018-12-06T10:07:13.892Z,5.50
2018-12-06T10:09:42.552Z,5.50
2018-12-06T10:12:11.248Z,5.60
2018-12-06T10:14:39.956Z,5.60
2018-12-06T10:17:08.657Z,5.70
2018-12-06T10:19:37.359Z,5.60
2018-12-06T10:22:06.080Z,5.60
2018-12-06T10:24:35.470Z,5.70
2018-12-06T10:27:04.191Z,5.70
2018-12-06T10:29:33.875Z,5.70
2018-12-06T10:32:03.185Z,5.70
2018-12-06T10:34:31.996Z,5.70
2018-12-06T10:37:00.669Z,5.80
2018-12-06T10:39:29.337Z,5.70
2018-12-06T10:41:58.042Z,5.70
2018-12-06T10:44:30.493Z,5.70
2018-12-06T10:46:59.196Z,5.70
2018-12-06T10:49:28.006Z,5.70
2018-12-06T10:51:56.710Z,5.70
2018-12-06T10:54:25.380Z,5.80
2018-12-06T10:56:54.106Z,5.80
2018-12-06T10:59:23.359Z,5.90
2018-12-06T11:01:57.634Z,5.80
2018-12-06T11:04:27.988Z,5.90
2018-12-06T11:06:56.693Z,6.00
2018-12-06T11:09:25.448Z,6.10
2018-12-06T11:11:54.161Z,6.20
2018-12-06T11:14:22.816Z,6.10
2018-12-06T11:16:53.172Z,6.20
2018-12-06T11:19:23.242Z,6.30
2018-12-06T11:21:51.902Z,6.40
2018-12-06T11:24:55.968Z,6.40
2018-12-06T11:27:24.653Z,6.30
2018-12-06T11:29:53.316Z,6.30
2018-12-06T11:32:22.068Z,6.40
2018-12-06T11:34:50.765Z,6.50
2018-12-06T11:37:19.432Z,6.50
2018-12-06T11:39:48.105Z,6.50
2018-12-06T11:42:16.775Z,6.50
2018-12-06T11:44:45.444Z,6.50
2018-12-06T11:47:15.199Z,6.60
2018-12-06T11:49:43.867Z,6.70
2018-12-06T11:52:12.546Z,6.70
2018-12-06T11:54:41.261Z,6.70
2018-12-06T11:57:09.917Z,6.60
2018-12-06T11:59:38.594Z,6.60
2018-12-06T12:02:10.111Z,6.70
2018-12-06T12:04:37.937Z,6.70
2018-12-06T12:07:06.612Z,6.70
2018-12-06T12:09:35.283Z,6.80
2018-12-06T12:12:04.023Z,6.80
2018-12-06T12:14:32.691Z,6.70
2018-12-06T12:17:01.383Z,6.70
2018-12-06T12:19:30.113Z,6.70
2018-12-06T12:21:58.813Z,6.80
2018-12-06T12:24:27.557Z,6.80
2018-12-06T12:26:56.267Z,6.80
2018-12-06T12:29:24.953Z,6.80
2018-12-06T12:31:53.640Z,6.90
2018-12-06T12:34:22.607Z,6.90
2018-12-06T12:36:51.276Z,7.00
2018-12-06T12:39:20.008Z,6.90
2018-12-06T12:41:48.738Z,7.00
2018-12-06T12:44:18.032Z,7.00
2018-12-06T12:46:46.765Z,7.00
2018-12-06T12:49:15.460Z,7.00
2018-12-06T12:51:44.172Z,7.10
2018-12-06T12:54:12.861Z,7.10
2018-12-06T12:56:41.526Z,7.00
2018-12-06T12:59:10.225Z,7.10
2018-12-06T13:01:38.936Z,7.10
2018-12-06T13:04:07.598Z,7.00
2018-12-06T13:06:36.346Z,7.00
2018-12-06T13:09:07.217Z,7.00
2018-12-06T13:11:35.916Z,7.00
2018-12-06T13:14:04.614Z,7.00
2018-12-06T13:16:33.328Z,7.00
2018-12-06T13:19:02.011Z,7.00
2018-12-06T13:21:31.591Z,7.00
2018-12-06T13:24:00.346Z,6.90
2018-12-06T13:26:29.113Z,6.90
2018-12-06T13:28:57.837Z,6.80
2018-12-06T13:31:26.496Z,6.80
2018-12-06T13:33:55.188Z,6.80
2018-12-06T13:36:23.872Z,6.90
2018-12-06T13:38:52.539Z,6.90
2018-12-06T13:41:21.233Z,6.90
2018-12-06T13:43:49.940Z,6.90
2018-12-06T13:46:18.705Z,6.80
2018-12-06T13:48:47.372Z,6.80
2018-12-06T13:51:16.062Z,6.80
2018-12-06T13:53:44.764Z,6.90
2018-12-06T13:56:13.678Z,6.90
2018-12-06T13:58:42.413Z,6.90
2018-12-06T14:01:11.725Z,6.90
2018-12-06T14:03:40.822Z,6.90
2018-12-06T14:06:09.752Z,6.80
2018-12-06T14:08:38.511Z,6.80
2018-12-06T14:11:07.218Z,6.80
2018-12-06T14:13:35.997Z,6.80
2018-12-06T14:16:10.359Z,6.80
2018-12-06T14:18:35.436Z,6.80
2018-12-06T14:21:04.831Z,6.80
2018-12-06T14:23:33.538Z,6.80
2018-12-06T14:26:02.233Z,6.80
2018-12-06T14:28:30.952Z,6.80
2018-12-06T14:30:59.651Z,6.80
2018-12-06T14:33:28.378Z,6.80
2018-12-06T14:35:57.267Z,6.80
2018-12-06T14:38:25.993Z,6.90
2018-12-06T14:40:54.697Z,6.90
2018-12-06T14:43:23.503Z,6.90
2018-12-06T14:45:52.598Z,7.00
2018-12-06T14:48:21.393Z,7.00
2018-12-06T14:50:50.948Z,7.10
2018-12-06T14:53:20.068Z,7.10
2018-12-06T14:55:49.435Z,7.00
2018-12-06T14:58:18.147Z,7.10
2018-12-06T15:00:46.841Z,7.10
2018-12-06T15:03:15.580Z,7.10
2018-12-06T15:05:44.272Z,7.10
2018-12-06T15:08:12.932Z,7.10
2018-12-06T15:10:41.613Z,7.10
2018-12-06T15:13:10.337Z,7.10
2018-12-06T15:15:39.048Z,7.10
2018-12-06T15:18:07.733Z,7.10
2018-12-06T15:20:36.453Z,7.10
2018-12-06T15:23:05.215Z,7.20
2018-12-06T15:25:41.536Z,7.10
2018-12-06T15:28:04.593Z,7.10
2018-12-06T15:30:33.325Z,7.10
2018-12-06T15:33:02.021Z,7.00
2018-12-06T15:35:30.798Z,6.90
2018-12-06T15:37:59.470Z,6.90
2018-12-06T15:40:28.164Z,7.00
2018-12-06T15:42:56.943Z,6.90
2018-12-06T15:45:25.609Z,6.90
2018-12-06T15:47:54.336Z,7.00
2018-12-06T15:50:22.991Z,7.00
2018-12-06T15:52:51.667Z,6.90
2018-12-06T15:55:20.328Z,6.90
2018-12-06T15:57:49.077Z,6.80
2018-12-06T16:00:17.813Z,6.80
2018-12-06T16:02:46.753Z,6.80
2018-12-06T16:05:15.484Z,6.80
2018-12-06T16:07:44.196Z,6.80
2018-12-06T16:10:13.033Z,6.70
2018-12-06T16:12:41.712Z,6.70
2018-12-06T16:15:10.389Z,6.60
2018-12-06T16:17:39.061Z,6.60
2018-12-06T16:20:08.781Z,6.60
2018-12-06T16:22:37.469Z,6.50
2018-12-06T16:25:06.305Z,6.50
2018-12-06T16:27:35.809Z,6.50
2018-12-06T16:30:05.986Z,6.60
2018-12-06T16:32:34.660Z,6.50
2018-12-06T16:35:03.350Z,6.60
2018-12-06T16:37:32.055Z,6.50
2018-12-06T16:40:00.736Z,6.50
2018-12-06T16:42:29.498Z,6.60
2018-12-06T16:44:58.175Z,6.60
2018-12-06T16:47:26.843Z,6.60
2018-12-06T16:49:55.535Z,6.60
2018-12-06T16:52:24.240Z,6.70
2018-12-06T16:54:52.984Z,6.70
2018-12-06T16:57:21.644Z,6.70
2018-12-06T16:59:50.381Z,6.70
2018-12-06T17:02:19.296Z,6.70
2018-12-06T17:04:47.968Z,6.70
2018-12-06T17:07:16.753Z,6.70
2018-12-06T17:09:45.757Z,6.80
2018-12-06T17:12:14.460Z,6.80
2018-12-06T17:14:43.262Z,6.80
2018-12-06T17:17:37.551Z,6.80
2018-12-06T17:20:07.163Z,6.80
2018-12-06T17:22:35.837Z,6.80
2018-12-06T17:25:05.332Z,6.80
2018-12-06T17:27:34.030Z,6.80
2018-12-06T17:30:02.747Z,6.90
2018-12-06T17:32:31.627Z,6.90
2018-12-06T17:35:00.361Z,6.90
2018-12-06T17:37:29.105Z,6.90
2018-12-06T17:39:57.768Z,6.90
2018-12-06T17:42:26.477Z,7.00
2018-12-06T17:44:55.185Z,7.00
2018-12-06T17:47:23.914Z,7.00
2018-12-06T17:49:52.586Z,7.00
2018-12-06T17:52:21.406Z,7.00
2018-12-06T17:54:50.145Z,7.10
2018-12-06T17:57:18.913Z,7.10
2018-12-06T17:59:47.660Z,7.10
2018-12-06T18:02:16.339Z,7.10
2018-12-06T18:04:45.021Z,7.20
2018-12-06T18:07:13.776Z,7.20
2018-12-06T18:09:44.267Z,7.20
2018-12-06T18:12:13.037Z,7.30
2018-12-06T18:14:42.278Z,7.20
2018-12-06T18:17:11.031Z,7.30
2018-12-06T18:19:39.717Z,7.30
2018-12-06T18:22:08.441Z,7.40
2018-12-06T18:24:37.156Z,7.30
2018-12-06T18:27:05.844Z,7.40
2018-12-06T18:29:34.572Z,7.40
2018-12-06T18:32:03.236Z,7.40
2018-12-06T18:34:31.932Z,7.40
2018-12-06T18:37:00.660Z,7.50
2018-12-06T18:39:30.280Z,7.50
2018-12-06T18:41:58.975Z,7.50
2018-12-06T18:44:27.663Z,7.60
2018-12-06T18:46:56.672Z,7.60
2018-12-06T18:49:25.370Z,7.60
2018-12-06T18:51:54.123Z,7.60
2018-12-06T18:54:22.855Z,7.60
2018-12-06T18:56:51.538Z,7.60
2018-12-06T18:59:20.228Z,7.60
2018-12-06T19:01:49.006Z,7.60
2018-12-06T19:04:18.095Z,7.70
2018-12-06T19:06:46.868Z,7.70
2018-12-06T19:09:15.603Z,7.70
2018-12-06T19:11:44.323Z,7.70
2018-12-06T19:14:13.110Z,7.80
2018-12-06T19:16:41.885Z,7.80
2018-12-06T19:19:10.567Z,7.90
2018-12-06T19:21:39.305Z,7.90
2018-12-06T19:24:08.022Z,7.90
2018-12-06T19:26:36.752Z,7.90
2018-12-06T19:29:05.495Z,7.90
2018-12-06T19:31:34.263Z,7.90
2018-12-06T19:34:02.997Z,8.00
2018-12-06T19:36:31.741Z,8.00
2018-12-06T19:39:00.502Z,8.00
2018-12-06T19:41:29.264Z,8.00
2018-12-06T19:43:57.952Z,8.00
2018-12-06T19:46:26.644Z,8.10
2018-12-06T19:48:55.421Z,8.10
2018-12-06T19:51:24.129Z,8.10
2018-12-06T19:53:53.436Z,8.10
2018-12-06T19:56:22.497Z,8.20
2018-12-06T19:58:51.171Z,8.20
2018-12-06T20:01:19.895Z,8.20
2018-12-06T20:03:48.584Z,8.20
2018-12-06T20:06:17.432Z,8.20
2018-12-06T20:08:46.221Z,8.20
2018-12-06T20:11:14.991Z,8.20
2018-12-06T20:13:43.693Z,8.20
2018-12-06T20:16:12.427Z,8.20
2018-12-06T20:18:41.115Z,8.20
2018-12-06T20:21:09.819Z,8.20
2018-12-06T20:23:38.508Z,8.20
2018-12-06T20:26:07.188Z,8.30
2018-12-06T20:28:36.049Z,8.30
2018-12-06T20:31:04.757Z,8.30
2018-12-06T20:33:33.485Z,8.30
2018-12-06T20:36:02.169Z,8.40
2018-12-06T20:38:30.941Z,8.40
2018-12-06T20:41:00.490Z,8.40
2018-12-06T20:46:34.226Z,8.50
2018-12-06T20:49:03.146Z,8.50
2018-12-06T20:51:33.427Z,8.50
2018-12-06T20:54:02.546Z,8.50
2018-12-06T20:56:31.379Z,8.60
2018-12-06T20:59:00.191Z,8.50
2018-12-06T21:01:28.899Z,8.50
2018-12-06T21:03:57.580Z,8.60
2018-12-06T21:06:26.313Z,8.50
2018-12-06T21:08:55.013Z,8.50
2018-12-06T21:11:23.683Z,8.50
2018-12-06T21:13:52.406Z,8.50
2018-12-06T21:16:21.420Z,8.50
2018-12-06T21:18:50.112Z,8.50
2018-12-06T21:21:19.126Z,8.50
2018-12-06T21:23:47.800Z,8.50
2018-12-06T21:26:16.501Z,8.50
2018-12-06T21:28:45.214Z,8.50
2018-12-06T21:31:13.943Z,8.50
2018-12-06T21:33:42.655Z,8.50
2018-12-06T21:36:11.420Z,8.50
2018-12-06T21:38:40.140Z,8.50
2018-12-06T21:41:08.852Z,8.60
2018-12-06T21:43:37.571Z,8.60
2018-12-06T21:46:06.300Z,8.60
2018-12-06T21:48:34.997Z,8.60
2018-12-06T21:51:03.745Z,8.60
2018-12-06T21:53:32.519Z,8.60
2018-12-06T21:56:01.246Z,8.60
2018-12-06T21:58:29.963Z,8.60
2018-12-06T22:00:58.704Z,8.60
2018-12-06T22:03:27.459Z,8.60
2018-12-06T22:05:56.157Z,8.60
2018-12-06T22:08:24.839Z,8.60
2018-12-06T22:10:53.557Z,8.60
2018-12-06T22:13:22.257Z,8.60
2018-12-06T22:15:50.994Z,8.70
2018-12-06T22:18:19.724Z,8.70
2018-12-06T22:20:48.424Z,8.70
2018-12-06T22:23:17.157Z,8.70
2018-12-06T22:25:45.914Z,8.70
2018-12-06T22:28:14.589Z,8.70
2018-12-06T22:30:43.282Z,8.80
2018-12-06T22:33:12.009Z,8.80
2018-12-06T22:35:40.690Z,8.90
2018-12-06T22:38:09.534Z,8.90
2018-12-06T22:40:38.297Z,9.00
2018-12-06T22:43:07.030Z,9.00
2018-12-06T22:45:57.067Z,9.00
2018-12-06T22:48:25.766Z,9.00
2018-12-06T22:50:54.493Z,9.10
2018-12-06T22:53:23.163Z,9.10
2018-12-06T22:55:51.887Z,9.20
2018-12-06T22:58:20.599Z,9.20
2018-12-06T23:00:51.169Z,9.20
2018-12-06T23:03:19.893Z,9.20
2018-12-06T23:05:48.620Z,9.20
2018-12-06T23:08:17.333Z,9.20
2018-12-06T23:10:46.058Z,9.20
2018-12-06T23:13:14.788Z,9.30
2018-12-06T23:15:43.565Z,9.30
2018-12-06T23:18:12.311Z,9.30
2018-12-06T23:20:41.035Z,9.20
2018-12-06T23:23:09.763Z,9.20
2018-12-06T23:25:38.473Z,9.30
2018-12-06T23:28:07.196Z,9.20
2018-12-06T23:30:35.894Z,9.20
2018-12-06T23:33:04.613Z,9.20
2018-12-06T23:35:33.303Z,9.20
2018-12-06T23:38:01.984Z,9.30
2018-12-06T23:40:30.660Z,9.30
2018-12-06T23:42:59.340Z,9.30
2018-12-06T23:45:28.030Z,9.30
2018-12-06T23:47:56.696Z,9.30
2018-12-06T23:50:25.426Z,9.30
2018-12-06T23:52:54.881Z,9.40
2018-12-06T23:55:23.604Z,9.40
2018-12-06T23:57:52.282Z,9.50
